This is the latest recevied weather packets stored in our database for station/object OK1KZE-6. If no packets are shown the sender has not sent any weather packets the latest 10 day(s).
| Time | Temp. | Humidity | Pressure | Rain* | Wind** | Luminosity | Snow |
|---|---|---|---|---|---|---|---|
| 1777973708 | 19.44° C | 57% | 1010.6 hPa | - | - | - | - |
| 1777973109 | 18.89° C | 60% | 1010.7 hPa | - | - | - | - |
| 1777972807 | 18.89° C | 60% | 1010.6 hPa | - | - | - | - |
| 1777972508 | 19.44° C | 61% | 1010.7 hPa | - | - | - | - |
| 1777972207 | 19.44° C | 63% | 1011 hPa | - | - | - | - |
| 1777971908 | 19.44° C | 62% | 1010.8 hPa | - | - | - | - |
| 1777971608 | 19.44° C | 64% | 1011 hPa | - | - | - | - |
| 1777971307 | 18.89° C | 63% | 1010.8 hPa | - | - | - | - |
| 1777971008 | 18.89° C | 65% | 1010.9 hPa | - | - | - | - |
| 1777970707 | 18.33° C | 64% | 1010.6 hPa | - | - | - | - |
| 1777970408 | 17.78° C | 66% | 1011.1 hPa | - | - | - | - |
| 1777970108 | 18.33° C | 66% | 1011 hPa | - | - | - | - |
| 1777969808 | 17.78° C | 68% | 1010.9 hPa | - | - | - | - |
| 1777969508 | 17.78° C | 68% | 1011 hPa | - | - | - | - |
| 1777969207 | -1.11° C | 100% | 1010.8 hPa | - | - | - | - |
| 1777968908 | -1.11° C | 100% | 1010.9 hPa | - | - | - | - |
| 1777968607 | -1.11° C | 100% | 1010.7 hPa | - | - | - | - |
| 1777968307 | 17.22° C | 70% | 1011.1 hPa | - | - | - | - |
| 1777968008 | 17.22° C | 70% | 1010.8 hPa | - | - | - | - |
| 1777967708 | -1.11° C | 100% | 1010.7 hPa | - | - | - | - |
| 1777967408 | -1.11° C | 100% | 1010.9 hPa | - | - | - | - |
| 1777967108 | -1.11° C | 100% | 1010.7 hPa | - | - | - | - |
| 1777966808 | 16.67° C | 71% | 1010.8 hPa | - | - | - | - |
| 1777966507 | 16.67° C | 71% | 1010.9 hPa | - | - | - | - |
| 1777966208 | 16.67° C | 72% | 1011.1 hPa | - | - | - | - |
* Rain since midnight (hover to see other rain measurements)
** Current wind speed in m/s (hover to see current wind gust speed)